sensor_id;sensor_type;location;lat;lon;timestamp;temperature;humidity
23839;DHT22;12100;44.384;20.272;2022-12-11T00:01:51;8.70;99.90
23839;DHT22;12100;44.384;20.272;2022-12-11T00:04:17;8.80;99.90
23839;DHT22;12100;44.384;20.272;2022-12-11T00:06:43;8.80;99.90
23839;DHT22;12100;44.384;20.272;2022-12-11T00:09:09;9.00;99.90
23839;DHT22;12100;44.384;20.272;2022-12-11T00:11:35;9.10;99.90
23839;DHT22;12100;44.384;20.272;2022-12-11T00:14:01;9.40;99.90
23839;DHT22;12100;44.384;20.272;2022-12-11T00:16:27;9.80;99.90
23839;DHT22;12100;44.384;20.272;2022-12-11T00:18:54;9.80;99.90
23839;DHT22;12100;44.384;20.272;2022-12-11T00:21:19;9.80;99.90
23839;DHT22;12100;44.384;20.272;2022-12-11T00:23:45;10.00;99.90
23839;DHT22;12100;44.384;20.272;2022-12-11T00:26:13;10.40;99.90
23839;DHT22;12100;44.384;20.272;2022-12-11T00:28:40;10.70;99.90
23839;DHT22;12100;44.384;20.272;2022-12-11T00:31:10;11.00;99.90
23839;DHT22;12100;44.384;20.272;2022-12-11T00:33:37;11.00;99.90
23839;DHT22;12100;44.384;20.272;2022-12-11T00:36:03;11.10;99.90
23839;DHT22;12100;44.384;20.272;2022-12-11T00:38:29;11.20;99.90
23839;DHT22;12100;44.384;20.272;2022-12-11T00:40:59;11.40;99.90
23839;DHT22;12100;44.384;20.272;2022-12-11T00:43:25;11.60;99.90
23839;DHT22;12100;44.384;20.272;2022-12-11T00:45:51;11.80;99.90
23839;DHT22;12100;44.384;20.272;2022-12-11T00:48:16;11.90;99.90
23839;DHT22;12100;44.384;20.272;2022-12-11T00:50:42;12.00;99.90
23839;DHT22;12100;44.384;20.272;2022-12-11T00:53:08;12.10;99.90
23839;DHT22;12100;44.384;20.272;2022-12-11T00:55:38;12.20;99.90
23839;DHT22;12100;44.384;20.272;2022-12-11T00:58:05;12.10;99.90
23839;DHT22;12100;44.384;20.272;2022-12-11T01:00:31;12.10;99.90
23839;DHT22;12100;44.384;20.272;2022-12-11T01:02:57;12.10;99.90
23839;DHT22;12100;44.384;20.272;2022-12-11T01:05:24;12.00;99.90
23839;DHT22;12100;44.384;20.272;2022-12-11T01:07:50;12.00;99.90
23839;DHT22;12100;44.384;20.272;2022-12-11T01:10:16;11.80;99.90
23839;DHT22;12100;44.384;20.272;2022-12-11T01:12:56;11.70;99.90
23839;DHT22;12100;44.384;20.272;2022-12-11T01:15:26;11.70;99.90
23839;DHT22;12100;44.384;20.272;2022-12-11T01:17:53;11.50;99.90
23839;DHT22;12100;44.384;20.272;2022-12-11T01:20:20;11.50;99.90
23839;DHT22;12100;44.384;20.272;2022-12-11T01:22:46;11.50;99.90
23839;DHT22;12100;44.384;20.272;2022-12-11T01:25:12;11.50;99.90
23839;DHT22;12100;44.384;20.272;2022-12-11T01:27:38;11.50;99.90
23839;DHT22;12100;44.384;20.272;2022-12-11T01:30:06;11.50;99.90
23839;DHT22;12100;44.384;20.272;2022-12-11T01:32:33;11.50;99.90
23839;DHT22;12100;44.384;20.272;2022-12-11T01:35:05;11.40;99.90
23839;DHT22;12100;44.384;20.272;2022-12-11T01:37:31;11.40;99.90
23839;DHT22;12100;44.384;20.272;2022-12-11T01:39:59;11.40;99.90
23839;DHT22;12100;44.384;20.272;2022-12-11T01:42:25;11.20;99.90
23839;DHT22;12100;44.384;20.272;2022-12-11T01:47:51;11.30;99.90
23839;DHT22;12100;44.384;20.272;2022-12-11T01:50:18;11.00;99.90
23839;DHT22;12100;44.384;20.272;2022-12-11T01:52:46;10.80;99.90
23839;DHT22;12100;44.384;20.272;2022-12-11T01:55:13;10.70;99.90
23839;DHT22;12100;44.384;20.272;2022-12-11T01:57:42;10.60;99.90
23839;DHT22;12100;44.384;20.272;2022-12-11T02:00:09;10.60;99.90
23839;DHT22;12100;44.384;20.272;2022-12-11T02:02:35;10.60;99.90
23839;DHT22;12100;44.384;20.272;2022-12-11T02:05:03;10.60;99.90
23839;DHT22;12100;44.384;20.272;2022-12-11T02:07:34;10.60;99.90
23839;DHT22;12100;44.384;20.272;2022-12-11T02:10:02;10.40;99.90
23839;DHT22;12100;44.384;20.272;2022-12-11T02:12:58;10.10;99.90
23839;DHT22;12100;44.384;20.272;2022-12-11T02:18:02;9.60;99.90
23839;DHT22;12100;44.384;20.272;2022-12-11T02:20:35;9.30;99.90
23839;DHT22;12100;44.384;20.272;2022-12-11T02:31:28;8.50;99.90
23839;DHT22;12100;44.384;20.272;2022-12-11T02:34:00;8.40;99.90
23839;DHT22;12100;44.384;20.272;2022-12-11T02:36:31;8.10;99.90
23839;DHT22;12100;44.384;20.272;2022-12-11T02:39:00;8.00;99.90
23839;DHT22;12100;44.384;20.272;2022-12-11T02:41:29;7.80;99.90
23839;DHT22;12100;44.384;20.272;2022-12-11T02:43:56;7.70;99.90
23839;DHT22;12100;44.384;20.272;2022-12-11T02:46:24;7.60;99.90
23839;DHT22;12100;44.384;20.272;2022-12-11T02:48:51;7.50;99.90
23839;DHT22;12100;44.384;20.272;2022-12-11T02:51:25;7.40;99.90
23839;DHT22;12100;44.384;20.272;2022-12-11T02:53:56;7.30;99.90
23839;DHT22;12100;44.384;20.272;2022-12-11T02:56:34;7.30;99.90
23839;DHT22;12100;44.384;20.272;2022-12-11T02:59:09;7.30;99.90
23839;DHT22;12100;44.384;20.272;2022-12-11T03:01:35;7.30;99.90
23839;DHT22;12100;44.384;20.272;2022-12-11T03:04:01;7.30;99.90
23839;DHT22;12100;44.384;20.272;2022-12-11T03:06:32;7.20;99.90
23839;DHT22;12100;44.384;20.272;2022-12-11T03:08:59;7.20;99.90
23839;DHT22;12100;44.384;20.272;2022-12-11T03:11:24;7.10;99.90
23839;DHT22;12100;44.384;20.272;2022-12-11T03:13:51;7.10;99.90
23839;DHT22;12100;44.384;20.272;2022-12-11T03:16:23;7.00;99.90
23839;DHT22;12100;44.384;20.272;2022-12-11T03:19:15;7.00;99.90
23839;DHT22;12100;44.384;20.272;2022-12-11T03:21:51;7.00;99.90
23839;DHT22;12100;44.384;20.272;2022-12-11T03:26:59;7.00;99.90
23839;DHT22;12100;44.384;20.272;2022-12-11T03:29:53;7.00;99.90
23839;DHT22;12100;44.384;20.272;2022-12-11T03:32:24;7.00;99.90
23839;DHT22;12100;44.384;20.272;2022-12-11T03:37:22;6.90;99.90
23839;DHT22;12100;44.384;20.272;2022-12-11T03:39:51;6.80;99.90
23839;DHT22;12100;44.384;20.272;2022-12-11T03:42:19;6.80;99.90
23839;DHT22;12100;44.384;20.272;2022-12-11T03:44:48;6.80;99.90
23839;DHT22;12100;44.384;20.272;2022-12-11T03:47:18;6.70;99.90
23839;DHT22;12100;44.384;20.272;2022-12-11T03:49:46;6.70;99.90
23839;DHT22;12100;44.384;20.272;2022-12-11T03:52:13;6.60;99.90
23839;DHT22;12100;44.384;20.272;2022-12-11T03:54:41;6.60;99.90
23839;DHT22;12100;44.384;20.272;2022-12-11T03:57:14;6.60;99.90
23839;DHT22;12100;44.384;20.272;2022-12-11T03:59:41;6.60;99.90
23839;DHT22;12100;44.384;20.272;2022-12-11T04:02:07;6.50;99.90
23839;DHT22;12100;44.384;20.272;2022-12-11T04:04:38;6.30;99.90
23839;DHT22;12100;44.384;20.272;2022-12-11T04:07:05;6.40;99.90
23839;DHT22;12100;44.384;20.272;2022-12-11T04:09:31;6.30;99.90
23839;DHT22;12100;44.384;20.272;2022-12-11T04:11:57;6.40;99.90
23839;DHT22;12100;44.384;20.272;2022-12-11T04:14:22;6.40;99.90
23839;DHT22;12100;44.384;20.272;2022-12-11T04:17:07;6.30;99.90
23839;DHT22;12100;44.384;20.272;2022-12-11T04:19:33;6.40;99.90
23839;DHT22;12100;44.384;20.272;2022-12-11T04:22:17;6.40;99.90
23839;DHT22;12100;44.384;20.272;2022-12-11T04:25:05;6.40;99.90
23839;DHT22;12100;44.384;20.272;2022-12-11T04:27:31;6.40;99.90
23839;DHT22;12100;44.384;20.272;2022-12-11T04:30:21;6.40;99.90
23839;DHT22;12100;44.384;20.272;2022-12-11T04:32:48;6.40;99.90
23839;DHT22;12100;44.384;20.272;2022-12-11T04:35:14;6.40;99.90
23839;DHT22;12100;44.384;20.272;2022-12-11T04:37:40;6.40;99.90
23839;DHT22;12100;44.384;20.272;2022-12-11T04:40:09;6.30;99.90
23839;DHT22;12100;44.384;20.272;2022-12-11T04:42:36;6.30;99.90
23839;DHT22;12100;44.384;20.272;2022-12-11T04:45:03;6.40;99.90
23839;DHT22;12100;44.384;20.272;2022-12-11T04:47:29;6.40;99.90
23839;DHT22;12100;44.384;20.272;2022-12-11T04:49:55;6.40;99.90
23839;DHT22;12100;44.384;20.272;2022-12-11T04:52:20;6.40;99.90
23839;DHT22;12100;44.384;20.272;2022-12-11T04:54:46;6.40;99.90
23839;DHT22;12100;44.384;20.272;2022-12-11T04:57:12;6.30;99.90
23839;DHT22;12100;44.384;20.272;2022-12-11T04:59:38;6.20;99.90
23839;DHT22;12100;44.384;20.272;2022-12-11T05:02:04;6.20;99.90
23839;DHT22;12100;44.384;20.272;2022-12-11T05:04:31;6.20;99.90
23839;DHT22;12100;44.384;20.272;2022-12-11T05:06:58;6.20;99.90
23839;DHT22;12100;44.384;20.272;2022-12-11T05:09:23;6.20;99.90
23839;DHT22;12100;44.384;20.272;2022-12-11T05:11:50;6.20;99.90
23839;DHT22;12100;44.384;20.272;2022-12-11T05:14:17;6.20;99.90
23839;DHT22;12100;44.384;20.272;2022-12-11T05:16:43;6.20;99.90
23839;DHT22;12100;44.384;20.272;2022-12-11T05:19:08;6.30;99.90
23839;DHT22;12100;44.384;20.272;2022-12-11T05:21:34;6.20;99.90
23839;DHT22;12100;44.384;20.272;2022-12-11T05:24:01;6.20;99.90
23839;DHT22;12100;44.384;20.272;2022-12-11T05:26:26;6.30;99.90
23839;DHT22;12100;44.384;20.272;2022-12-11T05:28:53;6.30;99.90
23839;DHT22;12100;44.384;20.272;2022-12-11T05:31:22;6.30;99.90
23839;DHT22;12100;44.384;20.272;2022-12-11T05:33:48;6.30;99.90
23839;DHT22;12100;44.384;20.272;2022-12-11T05:36:37;6.40;99.90
23839;DHT22;12100;44.384;20.272;2022-12-11T05:39:03;6.20;99.90
23839;DHT22;12100;44.384;20.272;2022-12-11T05:41:30;6.10;99.90
23839;DHT22;12100;44.384;20.272;2022-12-11T05:43:57;6.10;99.90
23839;DHT22;12100;44.384;20.272;2022-12-11T05:46:27;6.20;99.90
23839;DHT22;12100;44.384;20.272;2022-12-11T05:48:57;6.20;99.90
23839;DHT22;12100;44.384;20.272;2022-12-11T05:51:23;6.20;99.90
23839;DHT22;12100;44.384;20.272;2022-12-11T05:53:50;6.20;99.90
23839;DHT22;12100;44.384;20.272;2022-12-11T05:56:19;6.20;99.90
23839;DHT22;12100;44.384;20.272;2022-12-11T05:58:46;6.20;99.90
23839;DHT22;12100;44.384;20.272;2022-12-11T06:01:24;6.20;99.90
23839;DHT22;12100;44.384;20.272;2022-12-11T06:03:50;6.30;99.90
23839;DHT22;12100;44.384;20.272;2022-12-11T06:06:16;6.30;99.90
23839;DHT22;12100;44.384;20.272;2022-12-11T06:08:42;6.30;99.90
23839;DHT22;12100;44.384;20.272;2022-12-11T06:11:11;6.40;99.90
23839;DHT22;12100;44.384;20.272;2022-12-11T06:13:37;6.30;99.90
23839;DHT22;12100;44.384;20.272;2022-12-11T06:16:04;6.30;99.90
23839;DHT22;12100;44.384;20.272;2022-12-11T06:18:33;6.40;99.90
23839;DHT22;12100;44.384;20.272;2022-12-11T06:21:00;6.40;99.90
23839;DHT22;12100;44.384;20.272;2022-12-11T06:23:26;6.30;99.90
23839;DHT22;12100;44.384;20.272;2022-12-11T06:25:52;6.20;99.90
23839;DHT22;12100;44.384;20.272;2022-12-11T06:28:18;6.10;99.90
23839;DHT22;12100;44.384;20.272;2022-12-11T06:30:44;6.10;99.90
23839;DHT22;12100;44.384;20.272;2022-12-11T06:33:09;6.00;99.90
23839;DHT22;12100;44.384;20.272;2022-12-11T06:35:35;6.00;99.90
23839;DHT22;12100;44.384;20.272;2022-12-11T06:38:01;5.90;99.90
23839;DHT22;12100;44.384;20.272;2022-12-11T06:40:27;5.90;99.90
23839;DHT22;12100;44.384;20.272;2022-12-11T06:42:53;5.90;99.90
23839;DHT22;12100;44.384;20.272;2022-12-11T06:45:19;5.90;99.90
23839;DHT22;12100;44.384;20.272;2022-12-11T06:47:45;5.90;99.90
23839;DHT22;12100;44.384;20.272;2022-12-11T06:50:11;6.00;99.90
23839;DHT22;12100;44.384;20.272;2022-12-11T06:52:37;5.90;99.90
23839;DHT22;12100;44.384;20.272;2022-12-11T06:55:03;5.90;99.90
23839;DHT22;12100;44.384;20.272;2022-12-11T06:57:28;5.90;99.90
23839;DHT22;12100;44.384;20.272;2022-12-11T06:59:54;5.90;99.90
23839;DHT22;12100;44.384;20.272;2022-12-11T07:02:20;5.70;99.90
23839;DHT22;12100;44.384;20.272;2022-12-11T07:04:46;5.60;99.90
23839;DHT22;12100;44.384;20.272;2022-12-11T07:07:12;5.70;99.90
23839;DHT22;12100;44.384;20.272;2022-12-11T07:09:39;5.70;99.90
23839;DHT22;12100;44.384;20.272;2022-12-11T07:12:06;5.60;99.90
23839;DHT22;12100;44.384;20.272;2022-12-11T07:14:32;5.60;99.90
23839;DHT22;12100;44.384;20.272;2022-12-11T07:16:58;5.60;99.90
23839;DHT22;12100;44.384;20.272;2022-12-11T07:19:24;5.60;99.90
23839;DHT22;12100;44.384;20.272;2022-12-11T07:21:50;5.70;99.90
23839;DHT22;12100;44.384;20.272;2022-12-11T07:24:16;5.60;99.90
23839;DHT22;12100;44.384;20.272;2022-12-11T07:26:42;5.60;99.90
23839;DHT22;12100;44.384;20.272;2022-12-11T07:29:08;5.60;99.90
23839;DHT22;12100;44.384;20.272;2022-12-11T07:31:34;5.50;99.90
23839;DHT22;12100;44.384;20.272;2022-12-11T07:34:03;5.50;99.90
23839;DHT22;12100;44.384;20.272;2022-12-11T07:36:29;5.50;99.90
23839;DHT22;12100;44.384;20.272;2022-12-11T07:38:56;5.50;99.90
23839;DHT22;12100;44.384;20.272;2022-12-11T07:41:23;5.60;99.90
23839;DHT22;12100;44.384;20.272;2022-12-11T07:43:49;5.60;99.90
23839;DHT22;12100;44.384;20.272;2022-12-11T07:46:17;5.50;99.90
23839;DHT22;12100;44.384;20.272;2022-12-11T07:48:45;5.50;99.90
23839;DHT22;12100;44.384;20.272;2022-12-11T07:51:20;5.40;99.90
23839;DHT22;12100;44.384;20.272;2022-12-11T07:53:49;5.40;99.90
23839;DHT22;12100;44.384;20.272;2022-12-11T07:56:16;5.50;99.90
23839;DHT22;12100;44.384;20.272;2022-12-11T07:58:43;5.40;99.90
23839;DHT22;12100;44.384;20.272;2022-12-11T08:03:41;5.40;99.90
23839;DHT22;12100;44.384;20.272;2022-12-11T08:06:08;5.30;99.90
23839;DHT22;12100;44.384;20.272;2022-12-11T08:08:34;5.20;99.90
23839;DHT22;12100;44.384;20.272;2022-12-11T08:11:01;5.20;99.90
23839;DHT22;12100;44.384;20.272;2022-12-11T08:13:27;4.80;99.90
23839;DHT22;12100;44.384;20.272;2022-12-11T08:15:53;4.80;99.90
23839;DHT22;12100;44.384;20.272;2022-12-11T08:18:19;4.80;99.90
23839;DHT22;12100;44.384;20.272;2022-12-11T08:20:45;4.60;99.90
23839;DHT22;12100;44.384;20.272;2022-12-11T08:23:10;4.70;99.90
23839;DHT22;12100;44.384;20.272;2022-12-11T08:25:36;4.70;99.90
23839;DHT22;12100;44.384;20.272;2022-12-11T08:28:02;4.70;99.90
23839;DHT22;12100;44.384;20.272;2022-12-11T08:30:28;4.70;99.90
23839;DHT22;12100;44.384;20.272;2022-12-11T08:32:54;4.70;99.90
23839;DHT22;12100;44.384;20.272;2022-12-11T08:35:20;4.80;99.90
23839;DHT22;12100;44.384;20.272;2022-12-11T08:37:46;4.90;99.90
23839;DHT22;12100;44.384;20.272;2022-12-11T08:40:12;4.90;99.90
23839;DHT22;12100;44.384;20.272;2022-12-11T08:42:38;5.00;99.90
23839;DHT22;12100;44.384;20.272;2022-12-11T08:45:04;4.80;99.90
23839;DHT22;12100;44.384;20.272;2022-12-11T08:47:31;4.70;99.90
23839;DHT22;12100;44.384;20.272;2022-12-11T08:49:56;4.80;99.90
23839;DHT22;12100;44.384;20.272;2022-12-11T08:52:22;4.80;99.90
23839;DHT22;12100;44.384;20.272;2022-12-11T08:54:48;5.00;99.90
23839;DHT22;12100;44.384;20.272;2022-12-11T08:57:14;4.90;99.90
23839;DHT22;12100;44.384;20.272;2022-12-11T08:59:40;5.00;99.90
23839;DHT22;12100;44.384;20.272;2022-12-11T09:02:06;5.00;99.90
23839;DHT22;12100;44.384;20.272;2022-12-11T09:04:31;5.10;99.90
23839;DHT22;12100;44.384;20.272;2022-12-11T09:06:57;5.10;99.90
23839;DHT22;12100;44.384;20.272;2022-12-11T09:09:23;5.10;99.90
23839;DHT22;12100;44.384;20.272;2022-12-11T09:11:49;5.10;99.90
23839;DHT22;12100;44.384;20.272;2022-12-11T09:14:15;5.00;99.90
23839;DHT22;12100;44.384;20.272;2022-12-11T09:16:41;5.00;99.90
23839;DHT22;12100;44.384;20.272;2022-12-11T09:19:11;5.00;99.90
23839;DHT22;12100;44.384;20.272;2022-12-11T09:21:38;5.10;99.90
23839;DHT22;12100;44.384;20.272;2022-12-11T09:24:04;5.10;99.90
23839;DHT22;12100;44.384;20.272;2022-12-11T09:26:30;5.10;99.90
23839;DHT22;12100;44.384;20.272;2022-12-11T09:28:56;5.10;99.90
23839;DHT22;12100;44.384;20.272;2022-12-11T09:31:25;5.20;99.90
23839;DHT22;12100;44.384;20.272;2022-12-11T09:33:53;5.20;99.90
23839;DHT22;12100;44.384;20.272;2022-12-11T09:36:19;5.20;99.90
23839;DHT22;12100;44.384;20.272;2022-12-11T09:38:45;5.10;99.90
23839;DHT22;12100;44.384;20.272;2022-12-11T09:44:20;5.00;99.90
23839;DHT22;12100;44.384;20.272;2022-12-11T09:46:50;5.00;99.90
23839;DHT22;12100;44.384;20.272;2022-12-11T09:49:37;5.10;99.90
23839;DHT22;12100;44.384;20.272;2022-12-11T09:52:21;5.00;99.90
23839;DHT22;12100;44.384;20.272;2022-12-11T09:54:59;5.00;99.90
23839;DHT22;12100;44.384;20.272;2022-12-11T10:00:13;5.10;99.90
23839;DHT22;12100;44.384;20.272;2022-12-11T10:03:04;5.20;99.90
23839;DHT22;12100;44.384;20.272;2022-12-11T10:05:37;5.30;99.90
23839;DHT22;12100;44.384;20.272;2022-12-11T10:16:08;5.40;99.90
23839;DHT22;12100;44.384;20.272;2022-12-11T10:18:36;5.40;99.90
23839;DHT22;12100;44.384;20.272;2022-12-11T10:21:03;5.40;99.90
23839;DHT22;12100;44.384;20.272;2022-12-11T10:23:55;5.20;99.90
23839;DHT22;12100;44.384;20.272;2022-12-11T10:26:23;5.40;99.90
23839;DHT22;12100;44.384;20.272;2022-12-11T10:28:49;5.40;99.90
23839;DHT22;12100;44.384;20.272;2022-12-11T10:31:46;5.30;99.90
23839;DHT22;12100;44.384;20.272;2022-12-11T10:36:49;5.30;99.90
23839;DHT22;12100;44.384;20.272;2022-12-11T10:39:20;5.40;99.90
23839;DHT22;12100;44.384;20.272;2022-12-11T10:41:48;5.40;99.90
23839;DHT22;12100;44.384;20.272;2022-12-11T10:44:23;5.30;99.90
23839;DHT22;12100;44.384;20.272;2022-12-11T10:47:09;5.50;99.90
23839;DHT22;12100;44.384;20.272;2022-12-11T10:49:36;5.60;99.90
23839;DHT22;12100;44.384;20.272;2022-12-11T10:52:23;5.50;99.90
23839;DHT22;12100;44.384;20.272;2022-12-11T10:55:23;5.50;99.90
23839;DHT22;12100;44.384;20.272;2022-12-11T10:57:58;5.30;99.90
23839;DHT22;12100;44.384;20.272;2022-12-11T11:03:00;5.40;99.90
23839;DHT22;12100;44.384;20.272;2022-12-11T11:05:34;5.40;99.90
23839;DHT22;12100;44.384;20.272;2022-12-11T11:08:37;5.30;99.90
23839;DHT22;12100;44.384;20.272;2022-12-11T11:11:04;5.20;99.90
23839;DHT22;12100;44.384;20.272;2022-12-11T11:13:30;5.30;99.90
23839;DHT22;12100;44.384;20.272;2022-12-11T11:16:06;5.20;99.90
23839;DHT22;12100;44.384;20.272;2022-12-11T11:18:36;5.10;99.90
23839;DHT22;12100;44.384;20.272;2022-12-11T11:21:04;5.10;99.90
23839;DHT22;12100;44.384;20.272;2022-12-11T11:23:30;5.20;99.90
23839;DHT22;12100;44.384;20.272;2022-12-11T11:26:01;5.10;99.90
23839;DHT22;12100;44.384;20.272;2022-12-11T11:28:36;5.00;99.90
23839;DHT22;12100;44.384;20.272;2022-12-11T11:31:10;5.00;99.90
23839;DHT22;12100;44.384;20.272;2022-12-11T11:33:46;5.00;99.90
23839;DHT22;12100;44.384;20.272;2022-12-11T11:36:21;4.90;99.90
23839;DHT22;12100;44.384;20.272;2022-12-11T11:41:24;4.90;99.90
23839;DHT22;12100;44.384;20.272;2022-12-11T11:43:59;4.90;99.90
23839;DHT22;12100;44.384;20.272;2022-12-11T11:52:03;4.70;99.90
23839;DHT22;12100;44.384;20.272;2022-12-11T11:54:42;4.80;99.90
23839;DHT22;12100;44.384;20.272;2022-12-11T11:57:39;4.90;99.90
23839;DHT22;12100;44.384;20.272;2022-12-11T12:00:28;5.00;99.90
23839;DHT22;12100;44.384;20.272;2022-12-11T12:02:56;5.00;99.90
23839;DHT22;12100;44.384;20.272;2022-12-11T12:11:13;5.00;99.90
23839;DHT22;12100;44.384;20.272;2022-12-11T12:14:10;5.10;99.90
23839;DHT22;12100;44.384;20.272;2022-12-11T12:37:03;4.90;99.90
23839;DHT22;12100;44.384;20.272;2022-12-11T12:47:58;4.80;99.90
23839;DHT22;12100;44.384;20.272;2022-12-11T12:50:27;4.80;99.90
23839;DHT22;12100;44.384;20.272;2022-12-11T12:52:54;4.80;99.90
23839;DHT22;12100;44.384;20.272;2022-12-11T12:55:25;4.80;99.90
23839;DHT22;12100;44.384;20.272;2022-12-11T12:57:55;4.80;99.90
23839;DHT22;12100;44.384;20.272;2022-12-11T13:00:39;4.90;99.90
23839;DHT22;12100;44.384;20.272;2022-12-11T13:03:17;4.80;99.90
23839;DHT22;12100;44.384;20.272;2022-12-11T13:05:54;4.80;99.90
23839;DHT22;12100;44.384;20.272;2022-12-11T13:08:46;4.80;99.90
23839;DHT22;12100;44.384;20.272;2022-12-11T13:11:12;4.90;99.90
23839;DHT22;12100;44.384;20.272;2022-12-11T13:13:40;4.70;99.90
23839;DHT22;12100;44.384;20.272;2022-12-11T13:16:20;4.70;99.90
23839;DHT22;12100;44.384;20.272;2022-12-11T13:18:48;4.70;99.90
23839;DHT22;12100;44.384;20.272;2022-12-11T13:21:35;4.80;99.90
23839;DHT22;12100;44.384;20.272;2022-12-11T13:26:49;4.90;99.90
23839;DHT22;12100;44.384;20.272;2022-12-11T13:34:40;4.90;99.90
23839;DHT22;12100;44.384;20.272;2022-12-11T13:39:46;4.90;99.90
23839;DHT22;12100;44.384;20.272;2022-12-11T13:42:28;5.00;99.90
23839;DHT22;12100;44.384;20.272;2022-12-11T13:44:54;4.90;99.90
23839;DHT22;12100;44.384;20.272;2022-12-11T13:47:21;4.90;99.90
23839;DHT22;12100;44.384;20.272;2022-12-11T13:49:52;4.80;99.90
23839;DHT22;12100;44.384;20.272;2022-12-11T13:52:24;4.80;99.90
23839;DHT22;12100;44.384;20.272;2022-12-11T13:54:55;4.70;99.90
23839;DHT22;12100;44.384;20.272;2022-12-11T13:57:25;4.70;99.90
23839;DHT22;12100;44.384;20.272;2022-12-11T13:59:56;4.60;99.90
23839;DHT22;12100;44.384;20.272;2022-12-11T14:02:35;4.70;99.90
23839;DHT22;12100;44.384;20.272;2022-12-11T14:05:07;4.80;99.90
23839;DHT22;12100;44.384;20.272;2022-12-11T14:07:36;4.80;99.90
23839;DHT22;12100;44.384;20.272;2022-12-11T14:10:35;4.80;99.90
23839;DHT22;12100;44.384;20.272;2022-12-11T14:13:04;4.90;99.90
23839;DHT22;12100;44.384;20.272;2022-12-11T14:15:32;4.90;99.90
23839;DHT22;12100;44.384;20.272;2022-12-11T14:18:00;4.80;99.90
23839;DHT22;12100;44.384;20.272;2022-12-11T14:20:28;4.70;99.90
23839;DHT22;12100;44.384;20.272;2022-12-11T14:23:17;4.80;99.90
23839;DHT22;12100;44.384;20.272;2022-12-11T14:25:56;4.80;99.90
23839;DHT22;12100;44.384;20.272;2022-12-11T14:28:24;4.80;99.90
23839;DHT22;12100;44.384;20.272;2022-12-11T14:30:55;4.80;99.90
23839;DHT22;12100;44.384;20.272;2022-12-11T14:33:30;4.80;99.90
23839;DHT22;12100;44.384;20.272;2022-12-11T14:35:57;4.80;99.90
23839;DHT22;12100;44.384;20.272;2022-12-11T14:38:31;4.80;99.90
23839;DHT22;12100;44.384;20.272;2022-12-11T14:41:06;4.80;99.90
23839;DHT22;12100;44.384;20.272;2022-12-11T14:43:37;4.80;99.90
23839;DHT22;12100;44.384;20.272;2022-12-11T14:46:19;4.80;99.90
23839;DHT22;12100;44.384;20.272;2022-12-11T14:48:59;4.70;99.90
23839;DHT22;12100;44.384;20.272;2022-12-11T14:51:28;4.80;99.90
23839;DHT22;12100;44.384;20.272;2022-12-11T14:53:55;4.80;99.90
23839;DHT22;12100;44.384;20.272;2022-12-11T14:56:24;4.80;99.90
23839;DHT22;12100;44.384;20.272;2022-12-11T14:59:06;4.80;99.90
23839;DHT22;12100;44.384;20.272;2022-12-11T15:01:39;4.80;99.90
23839;DHT22;12100;44.384;20.272;2022-12-11T15:06:47;4.80;99.90
23839;DHT22;12100;44.384;20.272;2022-12-11T15:09:35;4.80;99.90
23839;DHT22;12100;44.384;20.272;2022-12-11T15:12:16;4.80;99.90
23839;DHT22;12100;44.384;20.272;2022-12-11T15:14:50;4.80;99.90
23839;DHT22;12100;44.384;20.272;2022-12-11T15:17:16;4.80;99.90
23839;DHT22;12100;44.384;20.272;2022-12-11T15:19:52;4.80;99.90
23839;DHT22;12100;44.384;20.272;2022-12-11T15:22:20;4.70;99.90
23839;DHT22;12100;44.384;20.272;2022-12-11T15:24:52;4.80;99.90
23839;DHT22;12100;44.384;20.272;2022-12-11T15:27:34;4.80;99.90
23839;DHT22;12100;44.384;20.272;2022-12-11T15:30:53;4.80;99.90
23839;DHT22;12100;44.384;20.272;2022-12-11T15:33:20;4.90;99.90
23839;DHT22;12100;44.384;20.272;2022-12-11T15:36:25;4.80;99.90
23839;DHT22;12100;44.384;20.272;2022-12-11T15:38:55;4.90;99.90
23839;DHT22;12100;44.384;20.272;2022-12-11T15:41:21;4.80;99.90
23839;DHT22;12100;44.384;20.272;2022-12-11T15:43:52;4.90;99.90
23839;DHT22;12100;44.384;20.272;2022-12-11T15:46:19;4.80;99.90
23839;DHT22;12100;44.384;20.272;2022-12-11T15:48:46;4.80;99.90
23839;DHT22;12100;44.384;20.272;2022-12-11T15:51:13;4.80;99.90
23839;DHT22;12100;44.384;20.272;2022-12-11T15:53:38;4.80;99.90
23839;DHT22;12100;44.384;20.272;2022-12-11T15:56:05;4.80;99.90
23839;DHT22;12100;44.384;20.272;2022-12-11T15:58:31;4.80;99.90
23839;DHT22;12100;44.384;20.272;2022-12-11T16:00:57;4.70;99.90
23839;DHT22;12100;44.384;20.272;2022-12-11T16:03:24;4.80;99.90
23839;DHT22;12100;44.384;20.272;2022-12-11T16:05:51;4.80;99.90
23839;DHT22;12100;44.384;20.272;2022-12-11T16:08:20;4.70;99.90
23839;DHT22;12100;44.384;20.272;2022-12-11T16:10:47;4.80;99.90
23839;DHT22;12100;44.384;20.272;2022-12-11T16:13:13;4.70;99.90
23839;DHT22;12100;44.384;20.272;2022-12-11T16:15:41;4.70;99.90
23839;DHT22;12100;44.384;20.272;2022-12-11T16:18:20;4.70;99.90
23839;DHT22;12100;44.384;20.272;2022-12-11T16:20:47;4.70;99.90
23839;DHT22;12100;44.384;20.272;2022-12-11T16:23:14;4.70;99.90
23839;DHT22;12100;44.384;20.272;2022-12-11T16:25:42;4.70;99.90
23839;DHT22;12100;44.384;20.272;2022-12-11T16:28:10;4.70;99.90
23839;DHT22;12100;44.384;20.272;2022-12-11T16:30:37;4.70;99.90
23839;DHT22;12100;44.384;20.272;2022-12-11T16:33:04;4.70;99.90
23839;DHT22;12100;44.384;20.272;2022-12-11T16:35:31;4.70;99.90
23839;DHT22;12100;44.384;20.272;2022-12-11T16:37:57;4.70;99.90
23839;DHT22;12100;44.384;20.272;2022-12-11T16:40:23;4.70;99.90
23839;DHT22;12100;44.384;20.272;2022-12-11T16:42:49;4.80;99.90
23839;DHT22;12100;44.384;20.272;2022-12-11T16:45:18;4.80;99.90
23839;DHT22;12100;44.384;20.272;2022-12-11T16:47:44;4.80;99.90
23839;DHT22;12100;44.384;20.272;2022-12-11T16:50:11;4.80;99.90
23839;DHT22;12100;44.384;20.272;2022-12-11T16:52:39;4.80;99.90
23839;DHT22;12100;44.384;20.272;2022-12-11T16:55:05;4.80;99.90
23839;DHT22;12100;44.384;20.272;2022-12-11T16:57:31;4.70;99.90
23839;DHT22;12100;44.384;20.272;2022-12-11T16:59:56;4.80;99.90
23839;DHT22;12100;44.384;20.272;2022-12-11T17:02:22;4.80;99.90
23839;DHT22;12100;44.384;20.272;2022-12-11T17:04:48;4.70;99.90
23839;DHT22;12100;44.384;20.272;2022-12-11T17:07:15;4.70;99.90
23839;DHT22;12100;44.384;20.272;2022-12-11T17:09:41;4.70;99.90
23839;DHT22;12100;44.384;20.272;2022-12-11T17:12:07;4.60;99.90
23839;DHT22;12100;44.384;20.272;2022-12-11T17:14:33;4.60;99.90
23839;DHT22;12100;44.384;20.272;2022-12-11T17:16:59;4.60;99.90
23839;DHT22;12100;44.384;20.272;2022-12-11T17:19:25;4.60;99.90
23839;DHT22;12100;44.384;20.272;2022-12-11T17:21:51;4.60;99.90
23839;DHT22;12100;44.384;20.272;2022-12-11T17:24:18;4.70;99.90